Time;durP1;ratioP1;P1;durP2;ratioP2;P2;SDS_P1;SDS_P2;PMS_P1;PMS_P2;Temp;Humidity;BMP_temperature;BMP_pressure;BME280_temperature;BME280_humidity;BME280_pressure;Samples;Min_cycle;Max_cycle;Signal;HPM_P1;HPM_P2
2022/05/19 00:01:14;;;;;;;24.08;15.90;;;18.70;99.90;;;;;;4971516;28;20339;-59
2022/05/19 00:03:40;;;;;;;23.02;15.30;;;18.70;99.90;;;;;;4972194;28;20031;-58
2022/05/19 00:06:07;;;;;;;22.58;15.32;;;18.60;99.90;;;;;;4972228;28;20466;-58
2022/05/19 00:08:33;;;;;;;25.67;15.77;;;18.50;99.90;;;;;;4972107;28;20105;-57
2022/05/19 00:11:03;;;;;;;25.70;16.70;;;18.40;99.90;;;;;;4971771;28;21000;-58
2022/05/19 00:13:30;;;;;;;26.15;16.23;;;18.40;99.90;;;;;;4972165;28;20039;-58
2022/05/19 00:15:56;;;;;;;23.70;15.85;;;18.30;99.90;;;;;;4972294;28;20042;-58
2022/05/19 00:18:22;;;;;;;25.10;16.50;;;18.20;99.90;;;;;;4972194;28;20042;-58
2022/05/19 00:20:48;;;;;;;21.50;15.90;;;18.10;99.90;;;;;;4954435;28;20053;-58
2022/05/19 00:23:15;;;;;;;23.65;17.20;;;18.20;99.90;;;;;;4971930;28;20044;-58
2022/05/19 00:25:41;;;;;;;28.00;18.33;;;18.10;99.90;;;;;;4971904;28;20047;-58
2022/05/19 00:28:07;;;;;;;23.25;16.30;;;18.00;99.90;;;;;;4971827;28;20441;-58
2022/05/19 00:30:33;;;;;;;25.40;16.30;;;18.00;99.90;;;;;;4971615;28;20067;-58
2022/05/19 00:32:59;;;;;;;26.30;17.13;;;18.00;99.90;;;;;;4971941;28;20045;-57
2022/05/19 00:35:25;;;;;;;25.15;17.48;;;17.90;99.90;;;;;;4971870;28;20477;-58
2022/05/19 00:37:50;;;;;;;23.38;16.73;;;17.90;99.90;;;;;;4971358;28;20047;-58
2022/05/19 00:40:21;;;;;;;23.52;15.77;;;17.90;99.90;;;;;;4974351;28;20393;-58
2022/05/19 00:42:47;;;;;;;25.10;17.42;;;17.80;99.90;;;;;;4975407;28;20039;-58
2022/05/19 00:45:22;;;;;;;26.67;16.85;;;17.90;99.90;;;;;;4975115;28;20049;-59
2022/05/19 00:48:03;;;;;;;21.80;16.25;;;17.90;99.90;;;;;;4958366;28;20430;-59
2022/05/19 00:50:56;;;;;;;31.23;17.15;;;17.90;99.90;;;;;;4975744;28;20471;-58
2022/05/19 00:54:06;;;;;;;21.42;16.50;;;17.90;99.90;;;;;;4974958;28;20124;-58
2022/05/19 00:56:40;;;;;;;24.10;17.15;;;17.90;99.90;;;;;;4936331;28;20042;-58
2022/05/19 00:59:09;;;;;;;24.92;16.00;;;17.90;99.90;;;;;;4975193;28;20051;-59
2022/05/19 01:01:39;;;;;;;26.77;17.55;;;17.90;99.90;;;;;;4975626;28;20594;-58
2022/05/19 01:04:13;;;;;;;24.70;16.92;;;18.00;99.90;;;;;;4975366;28;20406;-59
2022/05/19 01:06:41;;;;;;;26.27;17.27;;;18.00;99.90;;;;;;4975496;28;20042;-59
2022/05/19 01:09:11;;;;;;;28.65;18.48;;;18.00;99.90;;;;;;4974913;28;20062;-57
2022/05/19 01:11:38;;;;;;;24.85;18.25;;;17.90;99.90;;;;;;4975538;28;20031;-58
2022/05/19 01:14:05;;;;;;;31.13;18.02;;;18.00;99.90;;;;;;4975237;28;20080;-57
2022/05/19 01:16:31;;;;;;;27.38;18.40;;;18.00;99.90;;;;;;4975112;28;20030;-59
2022/05/19 01:18:58;;;;;;;27.45;18.23;;;17.90;99.90;;;;;;4975136;28;20093;-59
2022/05/19 01:21:27;;;;;;;26.45;18.05;;;17.90;99.90;;;;;;4974962;28;20049;-59
2022/05/19 01:24:25;;;;;;;28.88;18.35;;;17.80;99.90;;;;;;4974031;28;20411;-58
2022/05/19 01:26:53;;;;;;;27.75;19.10;;;17.80;99.90;;;;;;4973827;28;20510;-58
2022/05/19 01:29:23;;;;;;;26.50;18.98;;;17.80;99.90;;;;;;4974523;28;20434;-59
2022/05/19 01:31:55;;;;;;;28.63;19.60;;;17.70;99.90;;;;;;4974879;28;20043;-58
2022/05/19 01:34:25;;;;;;;30.38;20.42;;;17.70;99.90;;;;;;4957284;28;20042;-59
2022/05/19 01:36:51;;;;;;;26.40;19.52;;;17.60;99.90;;;;;;4974699;28;20188;-58
2022/05/19 01:39:23;;;;;;;29.63;20.02;;;17.60;99.90;;;;;;4974536;28;20368;-58
2022/05/19 01:42:22;;;;;;;29.90;19.73;;;17.60;99.90;;;;;;4974396;28;20050;-58
2022/05/19 01:44:55;;;;;;;28.08;19.10;;;17.60;99.90;;;;;;4957210;28;20128;-58
2022/05/19 01:47:26;;;;;;;28.23;19.88;;;17.50;99.90;;;;;;4974386;28;20105;-58
2022/05/19 01:50:03;;;;;;;28.65;19.85;;;17.50;99.90;;;;;;4974054;28;20034;-59
2022/05/19 01:52:38;;;;;;;25.95;20.00;;;17.50;99.90;;;;;;4974265;28;20125;-59
2022/05/19 01:55:20;;;;;;;28.90;19.42;;;17.50;99.90;;;;;;4974215;28;20047;-59
2022/05/19 01:57:58;;;;;;;28.08;20.88;;;17.50;99.90;;;;;;4974557;28;20038;-59
2022/05/19 02:00:26;;;;;;;28.33;19.65;;;17.50;99.90;;;;;;4973370;28;20062;-58
2022/05/19 02:02:58;;;;;;;29.02;20.75;;;17.40;99.90;;;;;;4974652;28;20040;-58
2022/05/19 02:05:50;;;;;;;26.80;20.55;;;17.30;99.90;;;;;;4974022;28;20125;-58
2022/05/19 02:08:23;;;;;;;31.02;20.30;;;17.20;99.90;;;;;;4973064;28;20035;-58
2022/05/19 02:10:53;;;;;;;35.35;21.55;;;17.30;99.90;;;;;;4973895;28;20043;-58
2022/05/19 02:13:20;;;;;;;28.42;21.35;;;17.40;99.90;;;;;;4974055;28;20479;-57
2022/05/19 02:15:49;;;;;;;30.70;21.25;;;17.30;99.90;;;;;;4973888;28;20035;-58
2022/05/19 02:18:17;;;;;;;30.55;21.30;;;17.30;99.90;;;;;;4974158;28;20117;-58
2022/05/19 02:20:45;;;;;;;33.60;21.95;;;17.20;99.90;;;;;;4974005;28;20039;-59
2022/05/19 02:23:12;;;;;;;32.92;21.70;;;17.30;99.90;;;;;;4973642;28;20660;-58
2022/05/19 02:25:44;;;;;;;32.00;21.85;;;17.30;99.90;;;;;;4973484;28;20031;-59
2022/05/19 02:28:18;;;;;;;30.02;22.60;;;17.30;99.90;;;;;;4973817;28;20118;-58
2022/05/19 02:30:44;;;;;;;32.30;21.85;;;17.20;99.90;;;;;;4973318;28;20467;-58
2022/05/19 02:33:15;;;;;;;28.55;21.52;;;17.20;99.90;;;;;;4973708;28;20046;-57
2022/05/19 02:35:41;;;;;;;30.05;21.23;;;17.30;99.90;;;;;;4973998;28;20065;-58
2022/05/19 02:38:07;;;;;;;29.48;21.63;;;17.20;99.90;;;;;;4973944;28;20062;-59
2022/05/19 02:40:34;;;;;;;32.60;22.85;;;17.10;99.90;;;;;;4973085;28;20043;-59
2022/05/19 02:43:00;;;;;;;31.70;21.20;;;17.20;99.90;;;;;;4973495;28;20042;-59
2022/05/19 02:45:27;;;;;;;31.17;22.65;;;17.10;99.90;;;;;;4973358;28;20146;-58
2022/05/19 02:47:53;;;;;;;32.83;23.38;;;17.00;99.90;;;;;;4973425;28;20074;-59
2022/05/19 02:50:20;;;;;;;31.77;22.95;;;17.10;99.90;;;;;;4973241;28;20460;-58
2022/05/19 02:52:46;;;;;;;34.72;23.65;;;17.00;99.90;;;;;;4972203;28;20136;-58
2022/05/19 02:55:12;;;;;;;32.70;23.30;;;17.10;99.90;;;;;;4972686;28;20051;-58
2022/05/19 02:57:38;;;;;;;31.38;22.90;;;17.10;99.90;;;;;;4972857;28;20080;-59
2022/05/19 03:00:07;;;;;;;32.05;23.65;;;17.10;99.90;;;;;;4972167;28;20082;-58
2022/05/19 03:02:33;;;;;;;33.70;23.67;;;17.20;99.90;;;;;;4972776;28;20442;-59
2022/05/19 03:04:59;;;;;;;31.60;23.92;;;17.20;99.90;;;;;;4973335;28;20035;-58
2022/05/19 03:07:24;;;;;;;33.72;23.70;;;17.20;99.90;;;;;;4972808;28;20100;-58
2022/05/19 03:09:50;;;;;;;33.28;24.77;;;17.10;99.90;;;;;;4972505;28;20047;-58
2022/05/19 03:12:17;;;;;;;37.13;25.60;;;17.10;99.90;;;;;;4973097;28;20142;-57
2022/05/19 03:14:42;;;;;;;34.38;24.67;;;17.20;99.90;;;;;;4972635;28;20039;-58
2022/05/19 03:17:09;;;;;;;36.55;26.13;;;17.10;99.90;;;;;;4972956;28;20485;-58
2022/05/19 03:19:36;;;;;;;36.50;26.55;;;17.10;99.90;;;;;;4972972;28;20049;-58
2022/05/19 03:22:03;;;;;;;31.48;25.15;;;17.20;99.90;;;;;;4972790;28;20066;-58
2022/05/19 03:24:29;;;;;;;36.70;26.42;;;17.10;99.90;;;;;;4972682;28;20050;-58
2022/05/19 03:26:55;;;;;;;37.30;25.25;;;17.10;99.90;;;;;;4972469;28;20043;-58
2022/05/19 03:29:21;;;;;;;30.75;25.80;;;17.00;99.90;;;;;;4972333;28;20039;-59
2022/05/19 03:31:46;;;;;;;38.85;26.48;;;17.10;99.90;;;;;;4972499;28;20062;-58
2022/05/19 03:34:12;;;;;;;34.60;25.98;;;17.00;99.90;;;;;;4972594;28;20410;-58
2022/05/19 03:36:37;;;;;;;40.08;27.55;;;17.00;99.90;;;;;;4972459;28;20035;-58
2022/05/19 03:39:03;;;;;;;40.13;27.13;;;16.90;99.90;;;;;;4971265;28;20457;-58
2022/05/19 03:41:29;;;;;;;37.80;27.00;;;17.00;99.90;;;;;;4971986;28;20035;-58
2022/05/19 03:43:55;;;;;;;41.38;27.45;;;16.80;99.90;;;;;;4972511;28;20062;-58
2022/05/19 03:46:21;;;;;;;39.58;28.45;;;16.90;99.90;;;;;;4971880;28;20411;-57
2022/05/19 03:48:47;;;;;;;35.63;26.63;;;17.00;99.90;;;;;;4972384;28;20097;-58
2022/05/19 03:51:21;;;;;;;36.13;27.13;;;16.90;99.90;;;;;;4955066;28;20078;-58
2022/05/19 03:53:47;;;;;;;38.33;26.80;;;16.90;99.90;;;;;;4970916;28;20039;-57
2022/05/19 03:56:13;;;;;;;34.70;28.10;;;16.90;99.90;;;;;;4971814;28;20106;-57
2022/05/19 03:58:38;;;;;;;39.28;29.10;;;17.00;99.90;;;;;;4971586;28;20085;-58
2022/05/19 04:01:06;;;;;;;40.75;29.30;;;17.00;99.90;;;;;;4972032;28;20050;-57
2022/05/19 04:03:31;;;;;;;38.10;28.55;;;16.90;99.90;;;;;;4954674;28;20141;-58
2022/05/19 04:05:57;;;;;;;38.80;29.10;;;17.00;99.90;;;;;;4972353;28;20081;-58
2022/05/19 04:08:22;;;;;;;42.38;29.48;;;17.10;99.90;;;;;;4970757;28;20487;-58
2022/05/19 04:10:48;;;;;;;39.00;28.65;;;17.10;99.90;;;;;;4972251;28;20034;-59
2022/05/19 04:13:14;;;;;;;40.35;29.77;;;17.10;99.90;;;;;;4971929;28;20038;-58
2022/05/19 04:15:40;;;;;;;39.97;29.58;;;17.20;99.90;;;;;;4971836;28;20118;-58
2022/05/19 04:18:07;;;;;;;43.17;30.90;;;17.20;99.90;;;;;;4971756;28;20138;-58
2022/05/19 04:20:33;;;;;;;39.72;29.95;;;17.30;99.90;;;;;;4971614;28;20046;-58
2022/05/19 04:23:01;;;;;;;41.95;28.85;;;17.30;99.90;;;;;;4970951;28;20487;-58
2022/05/19 04:25:29;;;;;;;39.63;29.58;;;17.30;99.90;;;;;;4970811;28;20058;-58
2022/05/19 04:27:55;;;;;;;42.75;30.58;;;17.40;99.90;;;;;;4971760;28;20047;-58
2022/05/19 04:30:21;;;;;;;40.50;30.23;;;17.40;99.90;;;;;;4971265;28;20039;-57
2022/05/19 04:32:47;;;;;;;38.40;29.40;;;17.50;99.90;;;;;;4954422;28;20062;-58
2022/05/19 04:35:14;;;;;;;37.95;28.38;;;17.60;99.90;;;;;;4971759;28;20035;-57
2022/05/19 04:37:40;;;;;;;40.13;29.73;;;17.70;99.90;;;;;;4971966;28;20030;-58
2022/05/19 04:40:07;;;;;;;39.53;29.13;;;17.70;99.90;;;;;;4971420;28;20043;-58
2022/05/19 04:42:33;;;;;;;38.38;29.67;;;17.80;99.90;;;;;;4970136;28;20035;-58
2022/05/19 04:44:59;;;;;;;45.75;30.45;;;17.80;99.90;;;;;;4971360;28;20125;-58
2022/05/19 04:47:25;;;;;;;39.13;29.90;;;17.90;99.90;;;;;;4971399;28;20201;-58
2022/05/19 04:49:51;;;;;;;39.78;31.38;;;17.90;99.90;;;;;;4971660;28;20110;-58
2022/05/19 04:52:16;;;;;;;40.97;31.67;;;18.00;99.90;;;;;;4971620;28;20038;-57
2022/05/19 04:54:42;;;;;;;39.95;31.20;;;18.00;99.90;;;;;;4971495;28;20039;-58
2022/05/19 04:57:10;;;;;;;44.70;32.58;;;18.00;99.90;;;;;;4970671;28;20487;-58
2022/05/19 04:59:40;;;;;;;45.00;31.98;;;18.10;99.90;;;;;;4970932;28;20043;-58
2022/05/19 05:02:06;;;;;;;41.88;29.83;;;18.10;99.90;;;;;;4953882;28;20074;-58
2022/05/19 05:04:31;;;;;;;38.33;29.38;;;18.20;99.90;;;;;;4971352;28;20066;-58
2022/05/19 05:06:57;;;;;;;39.45;28.23;;;18.20;99.90;;;;;;4971697;28;20038;-58
2022/05/19 05:09:23;;;;;;;42.80;28.48;;;18.20;99.90;;;;;;4952832;28;20462;-58
2022/05/19 05:11:49;;;;;;;36.10;27.55;;;18.20;99.90;;;;;;4971593;28;20035;-58
2022/05/19 05:14:16;;;;;;;37.53;27.58;;;18.30;99.90;;;;;;4971278;28;20071;-58
2022/05/19 05:16:46;;;;;;;40.10;27.90;;;18.30;99.90;;;;;;4971538;28;20046;-58
2022/05/19 05:19:11;;;;;;;36.05;23.50;;;18.30;99.90;;;;;;4971346;28;20046;-58
2022/05/19 05:21:37;;;;;;;28.25;19.02;;;18.40;99.90;;;;;;4971515;28;20054;-58
2022/05/19 05:24:03;;;;;;;21.35;16.60;;;18.50;99.90;;;;;;4972331;28;20142;-58
2022/05/19 05:26:29;;;;;;;17.80;13.07;;;18.50;99.90;;;;;;4974822;28;20494;-58
2022/05/19 05:28:54;;;;;;;17.00;11.43;;;18.50;99.90;;;;;;4974194;28;20515;-59
2022/05/19 05:31:20;;;;;;;15.63;10.40;;;18.60;99.90;;;;;;4974394;28;20042;-58
2022/05/19 05:33:46;;;;;;;16.17;9.05;;;18.60;99.90;;;;;;4975363;28;20042;-58
2022/05/19 05:36:14;;;;;;;14.23;8.52;;;18.70;99.90;;;;;;4974851;28;20031;-59
2022/05/19 05:38:40;;;;;;;10.55;6.68;;;18.70;99.90;;;;;;4974779;28;20178;-59
2022/05/19 05:41:06;;;;;;;10.88;6.18;;;18.80;99.90;;;;;;4974457;28;20034;-58
2022/05/19 05:43:34;;;;;;;10.88;6.43;;;18.80;99.90;;;;;;4973634;28;20406;-58
2022/05/19 05:46:06;;;;;;;10.43;5.65;;;18.90;99.90;;;;;;4974246;28;20042;-58
2022/05/19 05:48:34;;;;;;;8.02;4.47;;;19.00;99.90;;;;;;4974308;28;20082;-58
2022/05/19 05:51:00;;;;;;;8.75;4.35;;;19.00;99.90;;;;;;4974585;28;20129;-58
2022/05/19 05:53:26;;;;;;;6.55;3.75;;;19.00;99.90;;;;;;4973327;28;20174;-58
2022/05/19 05:55:51;;;;;;;7.82;3.63;;;19.00;99.90;;;;;;4974247;28;20065;-58
2022/05/19 05:58:17;;;;;;;5.32;2.78;;;19.00;99.90;;;;;;4974570;28;20045;-58
2022/05/19 06:00:43;;;;;;;8.75;2.38;;;19.00;99.90;;;;;;4973461;28;20093;-58
2022/05/19 06:03:08;;;;;;;7.03;2.80;;;19.00;99.90;;;;;;4974041;28;20129;-58
2022/05/19 06:05:34;;;;;;;5.47;2.35;;;19.10;99.90;;;;;;4974007;28;20050;-58
2022/05/19 06:08:00;;;;;;;6.93;2.60;;;19.10;99.90;;;;;;4973974;28;20058;-58
2022/05/19 06:10:26;;;;;;;5.82;2.80;;;19.10;99.90;;;;;;4974348;28;20053;-58
2022/05/19 06:12:53;;;;;;;4.93;2.60;;;19.10;99.90;;;;;;4974072;28;20047;-59
2022/05/19 06:15:19;;;;;;;5.70;2.85;;;19.00;99.90;;;;;;4973915;28;20046;-58
2022/05/19 06:17:45;;;;;;;6.28;2.95;;;19.00;99.90;;;;;;4973841;28;20093;-58
2022/05/19 06:20:13;;;;;;;7.15;2.97;;;19.00;99.90;;;;;;4973906;28;20061;-58
2022/05/19 06:22:40;;;;;;;5.93;3.15;;;19.00;99.90;;;;;;4973619;28;20070;-58
2022/05/19 06:25:07;;;;;;;7.13;3.15;;;19.00;99.90;;;;;;4971787;28;20363;-58
2022/05/19 06:27:32;;;;;;;8.57;3.15;;;19.00;99.90;;;;;;4967290;28;20073;-59
2022/05/19 06:29:58;;;;;;;6.80;3.10;;;18.90;99.90;;;;;;4967481;28;20051;-58
2022/05/19 06:32:24;;;;;;;6.65;3.40;;;19.00;99.90;;;;;;4972065;28;20093;-58
2022/05/19 06:34:50;;;;;;;6.82;3.53;;;19.00;99.90;;;;;;4967742;28;20047;-58
2022/05/19 06:37:15;;;;;;;5.70;3.25;;;19.00;99.90;;;;;;4932682;28;20049;-58
2022/05/19 06:39:41;;;;;;;7.95;3.60;;;19.00;99.90;;;;;;4966204;28;20485;-58
2022/05/19 06:42:14;;;;;;;7.43;3.60;;;19.00;99.90;;;;;;4965158;28;20078;-58
2022/05/19 06:44:41;;;;;;;6.53;3.70;;;19.00;99.90;;;;;;4949903;28;20129;-58
2022/05/19 06:47:15;;;;;;;8.07;3.80;;;19.00;99.90;;;;;;4950816;28;20054;-58
2022/05/19 06:49:41;;;;;;;;;;;18.80;99.90;;;;;;4949889;28;20058;-58
2022/05/19 06:52:13;;;;;;;8.18;3.63;;;18.90;99.90;;;;;;4968598;28;20382;-58
2022/05/19 06:54:47;;;;;;;6.20;3.58;;;18.80;99.90;;;;;;4967109;28;20050;-58
2022/05/19 06:57:13;;;;;;;6.47;3.50;;;18.70;99.90;;;;;;4965952;28;20047;-58
2022/05/19 06:59:39;;;;;;;9.93;3.60;;;18.70;99.90;;;;;;4965417;28;20041;-59
2022/05/19 07:02:05;;;;;;;7.32;3.50;;;18.80;99.90;;;;;;4966274;28;20455;-59
2022/05/19 07:04:32;;;;;;;5.63;3.30;;;18.60;99.90;;;;;;4966260;28;20114;-58
2022/05/19 07:06:58;;;;;;;8.60;3.55;;;18.50;99.90;;;;;;4966615;28;20039;-58
2022/05/19 07:09:24;;;;;;;7.97;3.70;;;18.60;99.90;;;;;;4967004;28;20612;-58
2022/05/19 07:11:50;;;;;;;5.68;3.17;;;18.60;99.90;;;;;;4965523;28;20195;-57
2022/05/19 07:14:15;;;;;;;8.45;3.78;;;18.70;99.90;;;;;;4966600;28;20058;-58
2022/05/19 07:16:44;;;;;;;6.65;3.70;;;18.70;99.90;;;;;;4964916;28;20327;-58
2022/05/19 07:21:54;;;;;;;5.95;3.50;;;18.80;99.90;;;;;;4965380;28;20057;-59
2022/05/19 07:24:21;;;;;;;6.47;3.45;;;18.90;99.90;;;;;;4964652;28;20031;-58
2022/05/19 07:26:49;;;;;;;7.53;3.65;;;18.90;99.90;;;;;;4965082;28;20039;-58
2022/05/19 07:29:16;;;;;;;6.05;3.55;;;19.00;99.90;;;;;;4949444;28;20077;-58
2022/05/19 07:31:42;;;;;;;6.43;3.05;;;18.90;99.90;;;;;;4964792;28;20089;-58
2022/05/19 07:34:10;;;;;;;8.38;3.20;;;19.00;99.90;;;;;;4965357;28;20034;-58
2022/05/19 07:36:36;;;;;;;5.22;2.90;;;19.20;99.90;;;;;;4966058;28;20042;-58
2022/05/19 07:39:03;;;;;;;6.28;3.13;;;19.20;99.90;;;;;;4964983;28;20133;-58
2022/05/19 07:41:30;;;;;;;7.13;3.25;;;19.30;99.90;;;;;;4964605;28;20597;-58
2022/05/19 07:43:57;;;;;;;8.48;3.13;;;19.20;99.90;;;;;;4965876;28;20045;-58
2022/05/19 07:46:27;;;;;;;6.60;2.92;;;19.30;99.90;;;;;;4947101;28;20080;-58
2022/05/19 07:48:54;;;;;;;5.97;3.08;;;19.30;99.90;;;;;;4970058;28;20086;-59
2022/05/19 07:51:25;;;;;;;8.23;3.30;;;19.30;99.90;;;;;;4969348;28;20491;-58
2022/05/19 07:53:51;;;;;;;5.28;2.80;;;19.30;99.90;;;;;;4952543;28;20038;-59
2022/05/19 07:56:17;;;;;;;6.80;3.05;;;19.40;99.90;;;;;;4970087;28;20039;-57
2022/05/19 07:58:43;;;;;;;5.60;2.78;;;19.50;99.90;;;;;;4972002;28;20129;-58
2022/05/19 08:01:09;;;;;;;7.38;3.13;;;19.60;99.90;;;;;;4953679;28;20047;-58
2022/05/19 08:03:35;;;;;;;5.55;2.85;;;19.60;99.90;;;;;;4971155;28;20045;-58
2022/05/19 08:06:01;;;;;;;5.68;2.83;;;19.70;99.90;;;;;;4969488;28;20538;-58
2022/05/19 08:08:27;;;;;;;6.15;2.75;;;19.80;99.90;;;;;;4971716;28;21051;-60
2022/05/19 08:10:57;;;;;;;7.07;2.90;;;19.90;99.90;;;;;;4969839;28;20053;-58
2022/05/19 08:16:07;;;;;;;;;;;20.00;99.90;;;;;;4954237;28;20054;-57
2022/05/19 08:18:33;;;;;;;6.57;2.80;;;20.10;99.90;;;;;;4971616;28;20289;-57
2022/05/19 08:21:02;;;;;;;5.25;2.88;;;20.20;99.90;;;;;;4953190;28;20126;-57
2022/05/19 08:23:31;;;;;;;5.72;2.67;;;20.10;99.90;;;;;;4971217;28;20133;-56
2022/05/19 08:25:57;;;;;;;6.28;2.33;;;20.30;99.90;;;;;;4971646;28;20117;-56
2022/05/19 08:28:29;;;;;;;5.72;2.53;;;20.40;99.90;;;;;;4971321;28;20030;-56
2022/05/19 08:30:57;;;;;;;5.38;3.03;;;20.50;99.90;;;;;;4970271;28;20047;-57
2022/05/19 08:33:23;;;;;;;6.00;2.42;;;20.50;99.90;;;;;;4971643;28;20030;-57
2022/05/19 08:35:49;;;;;;;7.07;2.78;;;20.70;99.90;;;;;;4971463;28;20134;-57
2022/05/19 08:38:15;;;;;;;5.85;3.00;;;20.70;99.90;;;;;;4971491;28;20043;-57
2022/05/19 08:41:35;;;;;;;5.70;2.92;;;20.80;99.90;;;;;;4969610;28;20050;-57
2022/05/19 08:44:11;;;;;;;7.07;2.47;;;20.90;99.90;;;;;;4872137;29;20068;-56
2022/05/19 08:46:40;;;;;;;5.97;2.65;;;21.00;99.90;;;;;;4970265;28;20047;-56
2022/05/19 08:49:33;;;;;;;5.72;2.30;;;21.20;99.90;;;;;;4971389;28;20503;-56
2022/05/19 08:52:09;;;;;;;5.32;2.35;;;21.30;99.90;;;;;;4971421;28;20471;-56
2022/05/19 08:54:38;;;;;;;5.43;2.40;;;21.40;99.90;;;;;;4970852;28;20039;-57
2022/05/19 08:57:23;;;;;;;7.63;2.15;;;21.50;99.90;;;;;;4969911;28;20058;-56
2022/05/19 09:00:11;;;;;;;5.72;2.00;;;21.60;99.90;;;;;;4970552;28;20038;-56
2022/05/19 09:02:58;;;;;;;4.07;2.38;;;21.70;99.90;;;;;;4974490;28;20034;-57
2022/05/19 09:05:33;;;;;;;4.22;2.15;;;21.70;99.90;;;;;;4975020;28;20387;-57
2022/05/19 09:08:17;;;;;;;4.22;1.98;;;21.80;99.90;;;;;;4973697;28;20502;-56
2022/05/19 09:10:54;;;;;;;4.15;1.95;;;21.90;99.90;;;;;;4973874;28;20467;-57
2022/05/19 09:13:51;;;;;;;6.75;1.80;;;22.20;99.90;;;;;;4974616;28;20123;-57
2022/05/19 09:16:26;;;;;;;5.25;1.90;;;22.40;99.90;;;;;;4973463;28;20046;-57
2022/05/19 09:19:08;;;;;;;4.18;1.75;;;22.70;99.90;;;;;;4973990;28;20406;-56
2022/05/19 09:21:36;;;;;;;5.40;2.10;;;22.70;99.90;;;;;;4974694;28;20097;-56
2022/05/19 09:24:03;;;;;;;4.18;2.25;;;22.70;99.90;;;;;;4956067;28;20046;-56
2022/05/19 09:26:49;;;;;;;3.60;1.67;;;22.80;99.90;;;;;;4974202;28;20055;-56
2022/05/19 09:29:33;;;;;;;2.95;1.27;;;23.10;99.90;;;;;;4972918;28;20498;-56
2022/05/19 09:32:14;;;;;;;4.40;1.60;;;23.30;99.90;;;;;;4974370;28;20035;-56
2022/05/19 09:34:47;;;;;;;3.83;1.90;;;23.40;99.90;;;;;;4972684;28;20420;-57
2022/05/19 09:37:37;;;;;;;4.38;1.85;;;23.40;99.90;;;;;;4974493;28;20122;-57
2022/05/19 09:40:12;;;;;;;4.72;1.80;;;23.40;99.90;;;;;;4958377;28;20471;-57
2022/05/19 09:42:54;;;;;;;4.22;2.00;;;23.30;99.90;;;;;;4973200;28;20046;-56
2022/05/19 09:45:26;;;;;;;4.47;1.90;;;23.40;99.90;;;;;;4973105;28;20117;-56
2022/05/19 09:48:04;;;;;;;3.67;1.70;;;23.20;99.90;;;;;;4973780;28;20045;-56
2022/05/19 09:50:36;;;;;;;3.53;1.73;;;23.10;99.90;;;;;;4955121;28;20047;-56
2022/05/19 09:53:05;;;;;;;5.97;2.20;;;23.20;99.90;;;;;;4973676;28;20038;-56
2022/05/19 09:55:31;;;;;;;5.88;1.95;;;23.00;99.90;;;;;;4973603;28;20065;-57
2022/05/19 09:58:02;;;;;;;4.28;1.75;;;23.00;99.90;;;;;;4956438;28;20055;-56
2022/05/19 10:00:51;;;;;;;4.10;1.90;;;22.90;99.90;;;;;;4973832;28;20041;-57
2022/05/19 10:03:25;;;;;;;3.45;1.88;;;22.90;99.90;;;;;;4973884;28;20035;-56
2022/05/19 10:05:56;;;;;;;4.05;1.58;;;23.00;99.90;;;;;;4974248;28;20038;-57
2022/05/19 10:08:35;;;;;;;4.03;1.80;;;22.90;99.90;;;;;;4974220;28;20082;-57
2022/05/19 10:11:04;;;;;;;4.05;1.98;;;22.90;99.90;;;;;;4973964;28;20038;-57
2022/05/19 10:13:48;;;;;;;5.88;2.47;;;23.00;99.90;;;;;;4974342;28;20031;-57
2022/05/19 10:16:28;;;;;;;6.13;2.47;;;23.40;99.90;;;;;;4974122;28;20061;-57
2022/05/19 10:19:13;;;;;;;4.93;2.55;;;24.00;99.90;;;;;;4974182;28;20185;-55
2022/05/19 10:22:00;;;;;;;6.38;2.70;;;24.30;99.90;;;;;;4973453;28;20039;-56
2022/05/19 10:24:44;;;;;;;6.38;2.78;;;24.30;99.90;;;;;;4974007;28;20042;-56
2022/05/19 10:33:32;;;;;;;6.57;3.20;;;24.50;99.90;;;;;;4957399;28;20105;-56
2022/05/19 10:36:19;;;;;;;6.07;2.90;;;24.90;99.90;;;;;;4954274;28;20035;-57
2022/05/19 10:39:01;;;;;;;6.28;3.17;;;25.00;99.90;;;;;;4973768;28;20055;-56
2022/05/19 10:41:46;;;;;;;4.43;2.08;;;25.20;99.90;;;;;;4972785;28;20042;-57
2022/05/19 10:44:55;;;;;;;4.63;2.40;;;25.40;99.90;;;;;;4973321;28;20047;-57
2022/05/19 10:47:27;;;;;;;4.07;2.20;;;25.60;99.90;;;;;;4961077;28;20047;-56
2022/05/19 10:50:12;;;;;;;5.63;2.50;;;25.60;99.90;;;;;;4972598;28;20043;-56
2022/05/19 10:52:53;;;;;;;4.63;2.00;;;25.60;99.90;;;;;;4971823;28;20042;-57
2022/05/19 10:55:49;;;;;;;4.95;1.88;;;25.80;99.90;;;;;;4967595;28;21765;-56
2022/05/19 10:58:35;;;;;;;4.82;2.60;;;26.00;99.90;;;;;;4887427;28;20051;-56
2022/05/19 11:01:19;;;;;;;4.20;2.38;;;26.00;99.90;;;;;;4964740;28;20039;-56
2022/05/19 11:04:26;;;;;;;4.68;2.15;;;26.10;99.90;;;;;;4949109;28;20092;-56
2022/05/19 11:07:23;;;;;;;3.38;1.88;;;26.20;99.90;;;;;;4887344;29;20573;-57
2022/05/19 11:10:12;;;;;;;3.78;2.10;;;26.40;99.90;;;;;;4886947;29;20574;-56
2022/05/19 11:12:49;;;;;;;4.25;2.50;;;26.90;99.90;;;;;;4952147;28;20561;-57
2022/05/19 11:15:30;;;;;;;4.00;2.28;;;26.70;99.90;;;;;;4964340;28;20077;-57
2022/05/19 11:18:02;;;;;;;4.78;2.50;;;26.80;99.90;;;;;;4963243;28;20077;-57
2022/05/19 11:20:30;;;;;;;3.65;1.95;;;26.60;99.90;;;;;;4965378;28;20031;-57
2022/05/19 11:23:10;;;;;;;4.45;2.20;;;27.00;99.90;;;;;;4967646;28;20043;-57
2022/05/19 11:28:51;;;;;;;4.03;2.40;;;27.20;99.90;;;;;;4963705;28;20133;-57
2022/05/19 11:31:27;;;;;;;5.53;2.70;;;27.10;99.90;;;;;;4961228;28;20031;-57
2022/05/19 11:33:54;;;;;;;4.75;2.78;;;26.80;99.90;;;;;;4964875;28;20129;-57
2022/05/19 11:36:40;;;;;;;4.93;3.08;;;26.90;99.90;;;;;;4957172;28;20039;-57
2022/05/19 11:39:19;;;;;;;8.50;3.65;;;26.70;99.90;;;;;;4969926;28;20047;-57
2022/05/19 11:41:47;;;;;;;5.88;3.28;;;26.70;99.90;;;;;;4971156;28;20050;-56
2022/05/19 11:44:28;;;;;;;5.35;3.40;;;26.50;99.90;;;;;;4972524;28;20046;-56
2022/05/19 11:55:12;;;;;;;7.47;3.47;;;26.40;99.90;;;;;;4972504;28;20495;-57
2022/05/19 11:55:47;;;;;;;9.00;4.03;;;25.90;99.90;;;;;;4971966;28;20058;-57
2022/05/19 11:58:23;;;;;;;8.40;3.88;;;25.80;99.90;;;;;;4972232;28;20042;-57
2022/05/19 12:00:58;;;;;;;5.63;3.50;;;25.60;99.90;;;;;;4972082;28;20382;-57
2022/05/19 12:03:30;;;;;;;6.43;3.15;;;25.40;99.90;;;;;;4951589;28;20047;-57
2022/05/19 12:06:16;;;;;;;6.45;2.92;;;25.20;99.90;;;;;;4970047;28;20118;-57
2022/05/19 12:09:05;;;;;;;4.78;2.20;;;25.00;99.90;;;;;;4969619;28;20043;-58
2022/05/19 12:11:44;;;;;;;4.30;2.30;;;24.90;99.90;;;;;;4969237;28;20037;-58
2022/05/19 12:14:25;;;;;;;6.55;2.50;;;24.80;99.90;;;;;;4969532;28;20045;-57
2022/05/19 12:16:55;;;;;;;6.18;3.00;;;24.80;99.90;;;;;;4970538;28;20117;-57
2022/05/19 12:19:30;;;;;;;5.80;3.40;;;24.70;99.90;;;;;;4969975;28;20038;-58
2022/05/19 12:21:56;;;;;;;5.93;2.83;;;24.60;99.90;;;;;;4971217;28;20487;-58
2022/05/19 12:24:30;;;;;;;8.10;2.80;;;24.50;99.90;;;;;;4971466;28;20041;-58
2022/05/19 12:27:09;;;;;;;4.63;2.60;;;24.40;99.90;;;;;;4972156;28;20094;-57
2022/05/19 12:29:53;;;;;;;7.32;2.70;;;24.40;99.90;;;;;;4969818;28;20671;-57
2022/05/19 12:32:22;;;;;;;;;;;24.30;99.90;;;;;;4971374;28;20034;-58
2022/05/19 12:35:04;;;;;;;8.60;3.13;;;24.10;99.90;;;;;;4955758;28;19926;-57
2022/05/19 12:37:41;;;;;;;6.32;3.30;;;23.90;99.90;;;;;;4975070;28;20038;-57
2022/05/19 12:40:55;;;;;;;7.70;3.70;;;23.80;99.90;;;;;;4974550;28;20055;-57
2022/05/19 12:43:21;;;;;;;7.97;3.88;;;23.40;99.90;;;;;;4965242;28;20120;-57
2022/05/19 12:45:55;;;;;;;6.25;3.90;;;23.00;99.90;;;;;;4974310;28;20120;-57
2022/05/19 12:48:41;;;;;;;9.00;3.92;;;22.80;99.90;;;;;;4972376;28;20050;-57
2022/05/19 12:51:11;;;;;;;10.65;5.20;;;22.40;99.90;;;;;;4966489;28;20106;-58
2022/05/19 12:54:03;;;;;;;12.82;5.60;;;21.70;99.90;;;;;;4974673;28;20077;-58
2022/05/19 12:56:41;;;;;;;12.30;6.30;;;20.70;99.90;;;;;;4973820;28;20149;-58
2022/05/19 12:59:37;;;;;;;12.65;7.43;;;20.30;99.90;;;;;;4975133;28;20409;-58
2022/05/19 13:02:30;;;;;;;16.08;6.75;;;19.60;99.90;;;;;;4974990;28;20501;-58
2022/05/19 13:05:12;;;;;;;15.10;6.07;;;19.00;99.90;;;;;;4973748;28;20368;-59
2022/05/19 13:07:43;;;;;;;11.13;5.88;;;18.90;99.90;;;;;;4974994;28;20562;-58
2022/05/19 13:10:25;;;;;;;11.88;5.00;;;18.40;99.90;;;;;;4965051;28;20484;-57
2022/05/19 13:13:06;;;;;;;14.48;5.30;;;18.20;99.90;;;;;;4972945;28;20039;-58
2022/05/19 13:15:35;;;;;;;7.97;4.72;;;18.40;99.90;;;;;;4972353;28;20594;-57
2022/05/19 13:18:06;;;;;;;8.95;4.60;;;18.00;99.90;;;;;;4962844;28;20046;-59
2022/05/19 13:20:38;;;;;;;11.45;4.88;;;18.30;99.90;;;;;;4972556;28;20035;-57
2022/05/19 13:23:27;;;;;;;10.50;4.97;;;18.30;99.90;;;;;;4973307;28;20475;-56